sensor_id;sensor_type;location;lat;lon;timestamp;temperature;humidity
27741;DHT22;15134;48.768;9.184;2023-06-14T00:00:51;19.20;78.80
27741;DHT22;15134;48.768;9.184;2023-06-14T00:03:18;19.30;78.70
27741;DHT22;15134;48.768;9.184;2023-06-14T00:05:48;19.30;78.20
27741;DHT22;15134;48.768;9.184;2023-06-14T00:08:14;19.30;78.60
27741;DHT22;15134;48.768;9.184;2023-06-14T00:10:40;19.30;78.40
27741;DHT22;15134;48.768;9.184;2023-06-14T00:13:10;19.30;79.20
27741;DHT22;15134;48.768;9.184;2023-06-14T00:15:36;19.30;79.80
27741;DHT22;15134;48.768;9.184;2023-06-14T00:18:02;19.10;80.00
27741;DHT22;15134;48.768;9.184;2023-06-14T00:20:29;19.00;80.30
27741;DHT22;15134;48.768;9.184;2023-06-14T00:22:56;18.90;80.60
27741;DHT22;15134;48.768;9.184;2023-06-14T00:25:23;18.90;81.00
27741;DHT22;15134;48.768;9.184;2023-06-14T00:27:53;18.90;81.00
27741;DHT22;15134;48.768;9.184;2023-06-14T00:30:20;18.80;81.30
27741;DHT22;15134;48.768;9.184;2023-06-14T00:32:46;18.80;81.40
27741;DHT22;15134;48.768;9.184;2023-06-14T00:35:12;18.70;81.60
27741;DHT22;15134;48.768;9.184;2023-06-14T00:37:38;18.70;82.00
27741;DHT22;15134;48.768;9.184;2023-06-14T00:40:04;18.70;82.10
27741;DHT22;15134;48.768;9.184;2023-06-14T00:42:31;18.70;82.00
27741;DHT22;15134;48.768;9.184;2023-06-14T00:44:57;18.70;81.70
27741;DHT22;15134;48.768;9.184;2023-06-14T00:47:23;18.80;81.50
27741;DHT22;15134;48.768;9.184;2023-06-14T00:49:51;18.80;81.60
27741;DHT22;15134;48.768;9.184;2023-06-14T00:52:18;18.80;81.40
27741;DHT22;15134;48.768;9.184;2023-06-14T00:54:44;18.80;80.90
27741;DHT22;15134;48.768;9.184;2023-06-14T00:57:10;18.80;80.50
27741;DHT22;15134;48.768;9.184;2023-06-14T00:59:38;18.80;80.70
27741;DHT22;15134;48.768;9.184;2023-06-14T01:02:07;18.80;81.40
27741;DHT22;15134;48.768;9.184;2023-06-14T01:04:36;18.80;81.60
27741;DHT22;15134;48.768;9.184;2023-06-14T01:07:06;18.70;80.80
27741;DHT22;15134;48.768;9.184;2023-06-14T01:10:02;18.70;81.20
27741;DHT22;15134;48.768;9.184;2023-06-14T01:13:05;18.50;81.00
27741;DHT22;15134;48.768;9.184;2023-06-14T01:15:23;18.40;81.20
27741;DHT22;15134;48.768;9.184;2023-06-14T01:17:50;18.20;82.00
27741;DHT22;15134;48.768;9.184;2023-06-14T01:20:19;18.20;82.70
27741;DHT22;15134;48.768;9.184;2023-06-14T01:22:53;18.20;82.50
27741;DHT22;15134;48.768;9.184;2023-06-14T01:25:20;18.30;82.60
27741;DHT22;15134;48.768;9.184;2023-06-14T01:27:53;18.30;82.60
27741;DHT22;15134;48.768;9.184;2023-06-14T01:30:22;18.40;82.50
27741;DHT22;15134;48.768;9.184;2023-06-14T01:32:49;18.40;82.20
27741;DHT22;15134;48.768;9.184;2023-06-14T01:35:16;18.40;82.40
27741;DHT22;15134;48.768;9.184;2023-06-14T01:37:43;18.40;82.70
27741;DHT22;15134;48.768;9.184;2023-06-14T01:40:10;18.30;82.10
27741;DHT22;15134;48.768;9.184;2023-06-14T01:42:38;18.30;82.30
27741;DHT22;15134;48.768;9.184;2023-06-14T01:45:07;18.30;82.70
27741;DHT22;15134;48.768;9.184;2023-06-14T01:47:34;18.30;83.30
27741;DHT22;15134;48.768;9.184;2023-06-14T01:50:02;18.30;83.00
27741;DHT22;15134;48.768;9.184;2023-06-14T01:52:30;18.30;83.30
27741;DHT22;15134;48.768;9.184;2023-06-14T01:54:55;18.20;83.20
27741;DHT22;15134;48.768;9.184;2023-06-14T01:57:23;18.00;83.80
27741;DHT22;15134;48.768;9.184;2023-06-14T01:59:49;17.80;84.50
27741;DHT22;15134;48.768;9.184;2023-06-14T02:02:15;17.80;84.70
27741;DHT22;15134;48.768;9.184;2023-06-14T02:04:41;17.90;85.90
27741;DHT22;15134;48.768;9.184;2023-06-14T02:07:07;17.90;85.00
27741;DHT22;15134;48.768;9.184;2023-06-14T02:09:36;17.90;85.00
27741;DHT22;15134;48.768;9.184;2023-06-14T02:12:02;18.00;84.60
27741;DHT22;15134;48.768;9.184;2023-06-14T02:14:29;18.00;84.80
27741;DHT22;15134;48.768;9.184;2023-06-14T02:16:54;18.00;84.80
27741;DHT22;15134;48.768;9.184;2023-06-14T02:19:20;18.00;84.50
27741;DHT22;15134;48.768;9.184;2023-06-14T02:21:47;18.00;84.60
27741;DHT22;15134;48.768;9.184;2023-06-14T02:24:13;17.90;84.60
27741;DHT22;15134;48.768;9.184;2023-06-14T02:26:39;17.90;84.80
27741;DHT22;15134;48.768;9.184;2023-06-14T02:29:07;17.80;85.00
27741;DHT22;15134;48.768;9.184;2023-06-14T02:31:36;17.70;85.60
27741;DHT22;15134;48.768;9.184;2023-06-14T02:34:02;17.60;85.50
27741;DHT22;15134;48.768;9.184;2023-06-14T02:36:27;17.60;86.10
27741;DHT22;15134;48.768;9.184;2023-06-14T02:38:56;17.60;86.40
27741;DHT22;15134;48.768;9.184;2023-06-14T02:41:25;17.70;86.20
27741;DHT22;15134;48.768;9.184;2023-06-14T02:43:53;17.70;86.80
27741;DHT22;15134;48.768;9.184;2023-06-14T02:46:19;17.70;86.90
27741;DHT22;15134;48.768;9.184;2023-06-14T02:48:45;17.70;87.00
27741;DHT22;15134;48.768;9.184;2023-06-14T02:51:10;17.70;87.00
27741;DHT22;15134;48.768;9.184;2023-06-14T02:53:38;17.70;87.00
27741;DHT22;15134;48.768;9.184;2023-06-14T02:56:04;17.70;87.30
27741;DHT22;15134;48.768;9.184;2023-06-14T02:58:30;17.60;87.20
27741;DHT22;15134;48.768;9.184;2023-06-14T03:00:56;17.60;87.50
27741;DHT22;15134;48.768;9.184;2023-06-14T03:03:23;17.50;87.70
27741;DHT22;15134;48.768;9.184;2023-06-14T03:05:53;17.50;88.10
27741;DHT22;15134;48.768;9.184;2023-06-14T03:08:23;17.40;88.40
27741;DHT22;15134;48.768;9.184;2023-06-14T03:10:53;17.40;88.50
27741;DHT22;15134;48.768;9.184;2023-06-14T03:13:19;17.20;88.50
27741;DHT22;15134;48.768;9.184;2023-06-14T03:15:49;17.20;89.20
27741;DHT22;15134;48.768;9.184;2023-06-14T03:18:17;17.20;89.20
27741;DHT22;15134;48.768;9.184;2023-06-14T03:20:43;17.30;89.40
27741;DHT22;15134;48.768;9.184;2023-06-14T03:23:12;17.40;89.10
27741;DHT22;15134;48.768;9.184;2023-06-14T03:25:38;17.40;89.20
27741;DHT22;15134;48.768;9.184;2023-06-14T03:28:06;17.30;88.80
27741;DHT22;15134;48.768;9.184;2023-06-14T03:30:32;17.30;88.50
27741;DHT22;15134;48.768;9.184;2023-06-14T03:32:58;17.30;88.90
27741;DHT22;15134;48.768;9.184;2023-06-14T03:35:28;17.10;89.30
27741;DHT22;15134;48.768;9.184;2023-06-14T03:37:54;17.10;90.10
27741;DHT22;15134;48.768;9.184;2023-06-14T03:40:21;17.10;89.80
27741;DHT22;15134;48.768;9.184;2023-06-14T03:42:51;17.10;90.00
27741;DHT22;15134;48.768;9.184;2023-06-14T03:45:18;17.10;90.10
27741;DHT22;15134;48.768;9.184;2023-06-14T03:47:44;17.10;90.10
27741;DHT22;15134;48.768;9.184;2023-06-14T03:50:10;17.10;90.10
27741;DHT22;15134;48.768;9.184;2023-06-14T03:52:36;17.20;90.20
27741;DHT22;15134;48.768;9.184;2023-06-14T03:55:03;17.30;90.20
27741;DHT22;15134;48.768;9.184;2023-06-14T03:57:30;17.20;90.00
27741;DHT22;15134;48.768;9.184;2023-06-14T03:59:57;17.30;90.20
27741;DHT22;15134;48.768;9.184;2023-06-14T04:02:23;17.30;90.10
27741;DHT22;15134;48.768;9.184;2023-06-14T04:04:49;17.30;90.20
27741;DHT22;15134;48.768;9.184;2023-06-14T04:07:15;17.30;90.10
27741;DHT22;15134;48.768;9.184;2023-06-14T04:09:45;17.20;90.10
27741;DHT22;15134;48.768;9.184;2023-06-14T04:12:11;17.30;90.20
27741;DHT22;15134;48.768;9.184;2023-06-14T04:14:41;17.30;90.40
27741;DHT22;15134;48.768;9.184;2023-06-14T04:17:09;17.40;90.40
27741;DHT22;15134;48.768;9.184;2023-06-14T04:19:36;17.40;90.40
27741;DHT22;15134;48.768;9.184;2023-06-14T04:22:02;17.40;90.40
27741;DHT22;15134;48.768;9.184;2023-06-14T04:24:32;17.40;90.20
27741;DHT22;15134;48.768;9.184;2023-06-14T04:27:01;17.50;90.10
27741;DHT22;15134;48.768;9.184;2023-06-14T04:29:27;17.50;90.30
27741;DHT22;15134;48.768;9.184;2023-06-14T04:32:07;17.50;90.50
27741;DHT22;15134;48.768;9.184;2023-06-14T04:34:37;17.50;90.60
27741;DHT22;15134;48.768;9.184;2023-06-14T04:37:03;17.50;90.60
27741;DHT22;15134;48.768;9.184;2023-06-14T04:39:41;17.50;90.90
27741;DHT22;15134;48.768;9.184;2023-06-14T04:42:08;17.50;90.80
27741;DHT22;15134;48.768;9.184;2023-06-14T04:44:34;17.60;90.60
27741;DHT22;15134;48.768;9.184;2023-06-14T04:47:02;17.60;90.40
27741;DHT22;15134;48.768;9.184;2023-06-14T04:49:28;17.70;90.40
27741;DHT22;15134;48.768;9.184;2023-06-14T04:51:57;17.60;90.10
27741;DHT22;15134;48.768;9.184;2023-06-14T04:54:27;17.70;90.10
27741;DHT22;15134;48.768;9.184;2023-06-14T04:56:53;18.00;90.10
27741;DHT22;15134;48.768;9.184;2023-06-14T04:59:23;18.40;89.50
27741;DHT22;15134;48.768;9.184;2023-06-14T05:01:50;19.00;88.70
27741;DHT22;15134;48.768;9.184;2023-06-14T05:04:18;19.50;87.30
27741;DHT22;15134;48.768;9.184;2023-06-14T05:06:45;19.80;86.50
27741;DHT22;15134;48.768;9.184;2023-06-14T05:11:37;20.30;84.20
27741;DHT22;15134;48.768;9.184;2023-06-14T05:14:03;20.60;83.40
27741;DHT22;15134;48.768;9.184;2023-06-14T05:16:29;20.90;83.40
27741;DHT22;15134;48.768;9.184;2023-06-14T05:18:55;21.20;82.80
27741;DHT22;15134;48.768;9.184;2023-06-14T05:21:21;21.40;81.70
27741;DHT22;15134;48.768;9.184;2023-06-14T05:23:47;21.70;80.90
27741;DHT22;15134;48.768;9.184;2023-06-14T05:26:13;21.90;80.20
27741;DHT22;15134;48.768;9.184;2023-06-14T05:28:38;22.10;78.90
27741;DHT22;15134;48.768;9.184;2023-06-14T05:31:04;22.40;79.00
27741;DHT22;15134;48.768;9.184;2023-06-14T05:33:30;22.60;77.70
27741;DHT22;15134;48.768;9.184;2023-06-14T05:35:56;22.80;77.50
27741;DHT22;15134;48.768;9.184;2023-06-14T05:38:21;23.00;75.90
27741;DHT22;15134;48.768;9.184;2023-06-14T05:40:47;23.20;75.00
27741;DHT22;15134;48.768;9.184;2023-06-14T05:43:13;23.50;74.70
27741;DHT22;15134;48.768;9.184;2023-06-14T05:45:39;23.80;74.50
27741;DHT22;15134;48.768;9.184;2023-06-14T05:48:05;24.00;72.90
27741;DHT22;15134;48.768;9.184;2023-06-14T05:50:31;24.30;73.10
27741;DHT22;15134;48.768;9.184;2023-06-14T05:52:56;24.60;72.90
27741;DHT22;15134;48.768;9.184;2023-06-14T05:55:22;25.00;72.00
27741;DHT22;15134;48.768;9.184;2023-06-14T05:57:48;25.50;71.70
27741;DHT22;15134;48.768;9.184;2023-06-14T06:00:14;26.00;69.40
27741;DHT22;15134;48.768;9.184;2023-06-14T06:02:42;26.70;69.30
27741;DHT22;15134;48.768;9.184;2023-06-14T06:05:12;27.40;68.80
27741;DHT22;15134;48.768;9.184;2023-06-14T06:07:38;28.20;67.00
27741;DHT22;15134;48.768;9.184;2023-06-14T06:10:07;28.90;65.80
27741;DHT22;15134;48.768;9.184;2023-06-14T06:12:33;29.50;64.10
27741;DHT22;15134;48.768;9.184;2023-06-14T06:15:00;30.00;62.60
27741;DHT22;15134;48.768;9.184;2023-06-14T06:17:26;30.60;61.40
27741;DHT22;15134;48.768;9.184;2023-06-14T06:19:52;31.20;60.20
27741;DHT22;15134;48.768;9.184;2023-06-14T06:22:17;31.70;59.20
27741;DHT22;15134;48.768;9.184;2023-06-14T06:24:43;32.20;59.30
27741;DHT22;15134;48.768;9.184;2023-06-14T06:27:09;32.60;59.00
27741;DHT22;15134;48.768;9.184;2023-06-14T06:29:36;33.30;58.10
27741;DHT22;15134;48.768;9.184;2023-06-14T06:32:02;33.70;56.90
27741;DHT22;15134;48.768;9.184;2023-06-14T06:34:28;34.20;57.20
27741;DHT22;15134;48.768;9.184;2023-06-14T06:36:54;34.80;55.80
27741;DHT22;15134;48.768;9.184;2023-06-14T06:39:27;35.30;54.90
27741;DHT22;15134;48.768;9.184;2023-06-14T06:41:52;35.70;53.60
27741;DHT22;15134;48.768;9.184;2023-06-14T06:44:27;36.20;54.00
27741;DHT22;15134;48.768;9.184;2023-06-14T06:46:55;36.70;53.50
27741;DHT22;15134;48.768;9.184;2023-06-14T06:49:20;37.30;53.60
27741;DHT22;15134;48.768;9.184;2023-06-14T06:51:59;37.50;52.20
27741;DHT22;15134;48.768;9.184;2023-06-14T06:54:26;37.60;52.10
27741;DHT22;15134;48.768;9.184;2023-06-14T06:56:52;38.10;52.40
27741;DHT22;15134;48.768;9.184;2023-06-14T06:59:17;38.50;51.60
27741;DHT22;15134;48.768;9.184;2023-06-14T07:01:43;38.80;51.20
27741;DHT22;15134;48.768;9.184;2023-06-14T07:04:09;39.20;51.00
27741;DHT22;15134;48.768;9.184;2023-06-14T07:06:34;39.60;50.10
27741;DHT22;15134;48.768;9.184;2023-06-14T07:09:00;39.90;49.40
27741;DHT22;15134;48.768;9.184;2023-06-14T07:11:27;40.40;49.60
27741;DHT22;15134;48.768;9.184;2023-06-14T07:13:53;40.50;49.20
27741;DHT22;15134;48.768;9.184;2023-06-14T07:16:18;40.90;48.80
27741;DHT22;15134;48.768;9.184;2023-06-14T07:18:44;41.30;48.50
27741;DHT22;15134;48.768;9.184;2023-06-14T07:21:10;41.70;48.40
27741;DHT22;15134;48.768;9.184;2023-06-14T07:23:36;42.20;47.90
27741;DHT22;15134;48.768;9.184;2023-06-14T07:26:01;42.60;47.20
27741;DHT22;15134;48.768;9.184;2023-06-14T07:28:27;43.00;47.40
27741;DHT22;15134;48.768;9.184;2023-06-14T07:30:53;43.30;46.80
27741;DHT22;15134;48.768;9.184;2023-06-14T07:33:18;43.50;46.30
27741;DHT22;15134;48.768;9.184;2023-06-14T07:35:44;43.90;46.10
27741;DHT22;15134;48.768;9.184;2023-06-14T07:38:11;44.10;45.80
27741;DHT22;15134;48.768;9.184;2023-06-14T07:40:37;44.50;45.80
27741;DHT22;15134;48.768;9.184;2023-06-14T07:43:03;44.80;45.20
27741;DHT22;15134;48.768;9.184;2023-06-14T07:45:28;44.70;44.70
27741;DHT22;15134;48.768;9.184;2023-06-14T07:47:54;44.20;44.80
27741;DHT22;15134;48.768;9.184;2023-06-14T07:50:20;43.90;45.30
27741;DHT22;15134;48.768;9.184;2023-06-14T07:52:46;43.60;45.10
27741;DHT22;15134;48.768;9.184;2023-06-14T07:55:13;43.00;45.40
27741;DHT22;15134;48.768;9.184;2023-06-14T07:57:40;43.50;45.00
27741;DHT22;15134;48.768;9.184;2023-06-14T08:00:06;43.80;44.40
27741;DHT22;15134;48.768;9.184;2023-06-14T08:02:37;43.70;44.70
27741;DHT22;15134;48.768;9.184;2023-06-14T08:05:03;44.30;44.60
27741;DHT22;15134;48.768;9.184;2023-06-14T08:07:29;44.90;43.80
27741;DHT22;15134;48.768;9.184;2023-06-14T08:09:55;45.30;43.60
27741;DHT22;15134;48.768;9.184;2023-06-14T08:12:20;44.70;43.90
27741;DHT22;15134;48.768;9.184;2023-06-14T08:14:46;44.60;44.00
27741;DHT22;15134;48.768;9.184;2023-06-14T08:17:12;44.60;44.00
27741;DHT22;15134;48.768;9.184;2023-06-14T08:19:38;43.80;44.80
27741;DHT22;15134;48.768;9.184;2023-06-14T08:22:03;44.10;44.30
27741;DHT22;15134;48.768;9.184;2023-06-14T08:24:32;44.70;44.00
27741;DHT22;15134;48.768;9.184;2023-06-14T08:26:58;45.20;43.80
27741;DHT22;15134;48.768;9.184;2023-06-14T08:29:26;45.60;43.60
27741;DHT22;15134;48.768;9.184;2023-06-14T08:31:58;46.00;43.00
27741;DHT22;15134;48.768;9.184;2023-06-14T08:34:24;46.20;43.90
27741;DHT22;15134;48.768;9.184;2023-06-14T08:36:52;45.70;43.20
27741;DHT22;15134;48.768;9.184;2023-06-14T08:39:18;45.90;43.30
27741;DHT22;15134;48.768;9.184;2023-06-14T08:41:46;45.90;43.40
27741;DHT22;15134;48.768;9.184;2023-06-14T08:44:16;45.60;43.30
27741;DHT22;15134;48.768;9.184;2023-06-14T08:46:43;45.10;43.90
27741;DHT22;15134;48.768;9.184;2023-06-14T08:49:11;45.20;43.60
27741;DHT22;15134;48.768;9.184;2023-06-14T08:51:38;45.60;43.70
27741;DHT22;15134;48.768;9.184;2023-06-14T08:54:06;46.00;43.60
27741;DHT22;15134;48.768;9.184;2023-06-14T08:56:32;46.40;43.10
27741;DHT22;15134;48.768;9.184;2023-06-14T08:59:00;46.20;43.60
27741;DHT22;15134;48.768;9.184;2023-06-14T09:01:34;46.40;43.00
27741;DHT22;15134;48.768;9.184;2023-06-14T09:04:00;46.50;42.80
27741;DHT22;15134;48.768;9.184;2023-06-14T09:06:26;45.70;42.50
27741;DHT22;15134;48.768;9.184;2023-06-14T09:08:54;45.10;43.50
27741;DHT22;15134;48.768;9.184;2023-06-14T09:11:22;44.70;43.50
27741;DHT22;15134;48.768;9.184;2023-06-14T09:13:49;43.90;43.90
27741;DHT22;15134;48.768;9.184;2023-06-14T09:16:15;43.90;44.20
27741;DHT22;15134;48.768;9.184;2023-06-14T09:18:44;43.80;44.40
27741;DHT22;15134;48.768;9.184;2023-06-14T09:21:11;44.20;44.10
27741;DHT22;15134;48.768;9.184;2023-06-14T09:23:41;44.20;43.70
27741;DHT22;15134;48.768;9.184;2023-06-14T09:26:18;43.40;44.40
27741;DHT22;15134;48.768;9.184;2023-06-14T09:28:49;43.20;44.60
27741;DHT22;15134;48.768;9.184;2023-06-14T09:31:16;43.40;44.10
27741;DHT22;15134;48.768;9.184;2023-06-14T09:33:44;43.20;44.10
27741;DHT22;15134;48.768;9.184;2023-06-14T09:36:23;43.20;44.00
27741;DHT22;15134;48.768;9.184;2023-06-14T09:41:19;42.40;45.00
27741;DHT22;15134;48.768;9.184;2023-06-14T09:43:46;42.40;45.30
27741;DHT22;15134;48.768;9.184;2023-06-14T09:46:12;42.40;45.30
27741;DHT22;15134;48.768;9.184;2023-06-14T09:48:38;42.50;45.60
27741;DHT22;15134;48.768;9.184;2023-06-14T09:51:10;43.10;45.10
27741;DHT22;15134;48.768;9.184;2023-06-14T09:53:40;43.00;44.60
27741;DHT22;15134;48.768;9.184;2023-06-14T09:56:07;40.70;44.40
27741;DHT22;15134;48.768;9.184;2023-06-14T09:58:34;38.90;45.60
27741;DHT22;15134;48.768;9.184;2023-06-14T10:01:02;37.80;47.00
27741;DHT22;15134;48.768;9.184;2023-06-14T10:03:31;36.00;48.60
27741;DHT22;15134;48.768;9.184;2023-06-14T10:05:58;34.50;49.90
27741;DHT22;15134;48.768;9.184;2023-06-14T10:08:28;33.50;51.60
27741;DHT22;15134;48.768;9.184;2023-06-14T10:10:56;33.20;52.30
27741;DHT22;15134;48.768;9.184;2023-06-14T10:23:26;29.70;56.00
27741;DHT22;15134;48.768;9.184;2023-06-14T10:25:57;29.20;55.90
27741;DHT22;15134;48.768;9.184;2023-06-14T10:28:25;28.80;56.70
27741;DHT22;15134;48.768;9.184;2023-06-14T10:31:11;28.40;57.50
27741;DHT22;15134;48.768;9.184;2023-06-14T10:33:50;28.10;58.70
27741;DHT22;15134;48.768;9.184;2023-06-14T10:41:24;27.60;61.00
27741;DHT22;15134;48.768;9.184;2023-06-14T10:43:51;27.40;61.80
27741;DHT22;15134;48.768;9.184;2023-06-14T10:46:18;27.20;62.30
27741;DHT22;15134;48.768;9.184;2023-06-14T10:48:46;27.20;63.20
27741;DHT22;15134;48.768;9.184;2023-06-14T10:51:16;27.50;62.00
27741;DHT22;15134;48.768;9.184;2023-06-14T10:53:49;27.60;61.50
27741;DHT22;15134;48.768;9.184;2023-06-14T10:56:31;27.80;60.60
27741;DHT22;15134;48.768;9.184;2023-06-14T10:58:58;27.70;60.70
27741;DHT22;15134;48.768;9.184;2023-06-14T11:01:36;27.90;59.70
27741;DHT22;15134;48.768;9.184;2023-06-14T11:04:12;27.60;59.70
27741;DHT22;15134;48.768;9.184;2023-06-14T11:06:49;27.30;61.00
27741;DHT22;15134;48.768;9.184;2023-06-14T11:09:29;27.20;61.10
27741;DHT22;15134;48.768;9.184;2023-06-14T11:12:09;27.50;61.00
27741;DHT22;15134;48.768;9.184;2023-06-14T11:14:36;27.60;60.20
27741;DHT22;15134;48.768;9.184;2023-06-14T11:17:02;27.60;60.00
27741;DHT22;15134;48.768;9.184;2023-06-14T11:19:27;27.80;60.00
27741;DHT22;15134;48.768;9.184;2023-06-14T11:21:55;27.60;60.00
27741;DHT22;15134;48.768;9.184;2023-06-14T11:24:20;27.40;59.70
27741;DHT22;15134;48.768;9.184;2023-06-14T11:26:47;27.30;59.40
27741;DHT22;15134;48.768;9.184;2023-06-14T11:29:15;27.20;59.20
27741;DHT22;15134;48.768;9.184;2023-06-14T11:31:44;27.20;59.20
27741;DHT22;15134;48.768;9.184;2023-06-14T11:34:12;27.20;59.90
27741;DHT22;15134;48.768;9.184;2023-06-14T11:36:38;27.00;58.90
27741;DHT22;15134;48.768;9.184;2023-06-14T11:39:05;26.70;59.70
27741;DHT22;15134;48.768;9.184;2023-06-14T11:41:43;26.40;60.60
27741;DHT22;15134;48.768;9.184;2023-06-14T11:44:09;26.30;60.70
27741;DHT22;15134;48.768;9.184;2023-06-14T11:46:35;26.30;60.40
27741;DHT22;15134;48.768;9.184;2023-06-14T11:49:02;26.20;61.20
27741;DHT22;15134;48.768;9.184;2023-06-14T11:51:35;26.20;60.20
27741;DHT22;15134;48.768;9.184;2023-06-14T11:54:02;26.30;60.00
27741;DHT22;15134;48.768;9.184;2023-06-14T11:56:30;26.40;60.00
27741;DHT22;15134;48.768;9.184;2023-06-14T11:58:57;26.50;59.50
27741;DHT22;15134;48.768;9.184;2023-06-14T12:01:23;26.30;59.50
27741;DHT22;15134;48.768;9.184;2023-06-14T12:03:50;26.30;59.90
27741;DHT22;15134;48.768;9.184;2023-06-14T12:06:16;26.20;59.40
27741;DHT22;15134;48.768;9.184;2023-06-14T12:08:50;26.30;59.90
27741;DHT22;15134;48.768;9.184;2023-06-14T12:11:16;26.40;60.10
27741;DHT22;15134;48.768;9.184;2023-06-14T12:13:43;26.60;60.50
27741;DHT22;15134;48.768;9.184;2023-06-14T12:16:10;26.70;59.80
27741;DHT22;15134;48.768;9.184;2023-06-14T12:18:37;26.70;60.80
27741;DHT22;15134;48.768;9.184;2023-06-14T12:21:10;26.80;60.30
27741;DHT22;15134;48.768;9.184;2023-06-14T12:23:43;26.70;60.70
27741;DHT22;15134;48.768;9.184;2023-06-14T12:26:13;26.60;60.20
27741;DHT22;15134;48.768;9.184;2023-06-14T12:28:40;26.40;59.90
27741;DHT22;15134;48.768;9.184;2023-06-14T12:31:06;26.20;60.00
27741;DHT22;15134;48.768;9.184;2023-06-14T12:33:32;25.90;60.60
27741;DHT22;15134;48.768;9.184;2023-06-14T12:35:58;25.60;61.50
27741;DHT22;15134;48.768;9.184;2023-06-14T12:38:24;25.50;61.50
27741;DHT22;15134;48.768;9.184;2023-06-14T12:40:50;25.50;62.10
27741;DHT22;15134;48.768;9.184;2023-06-14T12:43:15;25.50;61.80
27741;DHT22;15134;48.768;9.184;2023-06-14T12:45:41;25.30;61.60
27741;DHT22;15134;48.768;9.184;2023-06-14T12:48:07;25.20;61.40
27741;DHT22;15134;48.768;9.184;2023-06-14T12:50:34;25.20;61.50
27741;DHT22;15134;48.768;9.184;2023-06-14T12:53:00;25.20;62.70
27741;DHT22;15134;48.768;9.184;2023-06-14T12:55:26;25.20;63.70
27741;DHT22;15134;48.768;9.184;2023-06-14T12:57:54;25.20;63.60
27741;DHT22;15134;48.768;9.184;2023-06-14T13:00:20;25.20;63.80
27741;DHT22;15134;48.768;9.184;2023-06-14T13:02:47;25.20;63.20
27741;DHT22;15134;48.768;9.184;2023-06-14T13:05:13;25.20;63.00
27741;DHT22;15134;48.768;9.184;2023-06-14T13:07:38;25.10;63.20
27741;DHT22;15134;48.768;9.184;2023-06-14T13:10:04;25.20;63.30
27741;DHT22;15134;48.768;9.184;2023-06-14T13:12:30;25.10;63.20
27741;DHT22;15134;48.768;9.184;2023-06-14T13:14:56;25.00;62.80
27741;DHT22;15134;48.768;9.184;2023-06-14T13:17:22;25.10;63.30
27741;DHT22;15134;48.768;9.184;2023-06-14T13:19:47;25.20;62.60
27741;DHT22;15134;48.768;9.184;2023-06-14T13:22:13;25.20;62.30
27741;DHT22;15134;48.768;9.184;2023-06-14T13:24:39;25.20;62.30
27741;DHT22;15134;48.768;9.184;2023-06-14T13:27:05;25.30;62.30
27741;DHT22;15134;48.768;9.184;2023-06-14T13:29:31;25.20;62.40
27741;DHT22;15134;48.768;9.184;2023-06-14T13:31:58;25.20;62.90
27741;DHT22;15134;48.768;9.184;2023-06-14T13:34:24;25.20;62.80
27741;DHT22;15134;48.768;9.184;2023-06-14T13:36:50;25.40;62.50
27741;DHT22;15134;48.768;9.184;2023-06-14T13:39:16;25.30;63.00
27741;DHT22;15134;48.768;9.184;2023-06-14T13:41:42;25.20;63.70
27741;DHT22;15134;48.768;9.184;2023-06-14T13:44:07;25.20;64.50
27741;DHT22;15134;48.768;9.184;2023-06-14T13:46:33;25.20;64.60
27741;DHT22;15134;48.768;9.184;2023-06-14T13:48:59;25.10;64.20
27741;DHT22;15134;48.768;9.184;2023-06-14T13:51:26;25.00;63.90
27741;DHT22;15134;48.768;9.184;2023-06-14T13:53:53;25.00;64.20
27741;DHT22;15134;48.768;9.184;2023-06-14T13:56:20;24.90;64.40
27741;DHT22;15134;48.768;9.184;2023-06-14T13:58:48;25.00;64.90
27741;DHT22;15134;48.768;9.184;2023-06-14T14:01:13;25.00;64.60
27741;DHT22;15134;48.768;9.184;2023-06-14T14:03:39;25.00;64.10
27741;DHT22;15134;48.768;9.184;2023-06-14T14:06:05;25.10;64.70
27741;DHT22;15134;48.768;9.184;2023-06-14T14:08:34;25.20;64.30
27741;DHT22;15134;48.768;9.184;2023-06-14T14:11:00;25.10;64.80
27741;DHT22;15134;48.768;9.184;2023-06-14T14:13:26;25.20;64.70
27741;DHT22;15134;48.768;9.184;2023-06-14T14:15:52;25.40;63.80
27741;DHT22;15134;48.768;9.184;2023-06-14T14:18:18;25.60;64.20
27741;DHT22;15134;48.768;9.184;2023-06-14T14:20:46;25.60;63.50
27741;DHT22;15134;48.768;9.184;2023-06-14T14:23:12;25.60;63.40
27741;DHT22;15134;48.768;9.184;2023-06-14T14:25:38;25.60;63.70
27741;DHT22;15134;48.768;9.184;2023-06-14T14:28:04;25.50;63.80
27741;DHT22;15134;48.768;9.184;2023-06-14T14:30:29;25.60;64.50
27741;DHT22;15134;48.768;9.184;2023-06-14T14:32:55;25.60;64.60
27741;DHT22;15134;48.768;9.184;2023-06-14T14:35:21;25.50;65.10
27741;DHT22;15134;48.768;9.184;2023-06-14T14:37:48;25.40;65.10
27741;DHT22;15134;48.768;9.184;2023-06-14T14:40:14;25.40;66.20
27741;DHT22;15134;48.768;9.184;2023-06-14T14:42:40;25.40;65.60
27741;DHT22;15134;48.768;9.184;2023-06-14T14:45:06;25.40;64.80
27741;DHT22;15134;48.768;9.184;2023-06-14T14:47:32;25.20;65.40
27741;DHT22;15134;48.768;9.184;2023-06-14T14:49:58;25.10;65.30
27741;DHT22;15134;48.768;9.184;2023-06-14T14:52:24;25.10;65.00
27741;DHT22;15134;48.768;9.184;2023-06-14T14:54:50;25.00;65.30
27741;DHT22;15134;48.768;9.184;2023-06-14T14:57:16;25.00;65.20
27741;DHT22;15134;48.768;9.184;2023-06-14T14:59:41;25.00;65.60
27741;DHT22;15134;48.768;9.184;2023-06-14T15:02:07;25.10;65.20
27741;DHT22;15134;48.768;9.184;2023-06-14T15:04:33;25.00;64.90
27741;DHT22;15134;48.768;9.184;2023-06-14T15:06:59;25.00;64.90
27741;DHT22;15134;48.768;9.184;2023-06-14T15:09:25;25.10;64.50
27741;DHT22;15134;48.768;9.184;2023-06-14T15:11:50;25.10;65.20
27741;DHT22;15134;48.768;9.184;2023-06-14T15:14:16;25.10;65.00
27741;DHT22;15134;48.768;9.184;2023-06-14T15:16:42;25.20;65.00
27741;DHT22;15134;48.768;9.184;2023-06-14T15:19:08;25.20;64.80
27741;DHT22;15134;48.768;9.184;2023-06-14T15:21:33;25.20;65.20
27741;DHT22;15134;48.768;9.184;2023-06-14T15:23:59;25.20;65.50
27741;DHT22;15134;48.768;9.184;2023-06-14T15:26:25;25.10;66.10
27741;DHT22;15134;48.768;9.184;2023-06-14T15:28:51;25.10;65.90
27741;DHT22;15134;48.768;9.184;2023-06-14T15:31:17;25.10;66.00
27741;DHT22;15134;48.768;9.184;2023-06-14T15:33:42;25.10;65.70
27741;DHT22;15134;48.768;9.184;2023-06-14T15:36:09;25.10;65.60
27741;DHT22;15134;48.768;9.184;2023-06-14T15:38:35;25.10;66.00
27741;DHT22;15134;48.768;9.184;2023-06-14T15:41:01;25.10;65.60
27741;DHT22;15134;48.768;9.184;2023-06-14T15:43:27;25.00;66.00
27741;DHT22;15134;48.768;9.184;2023-06-14T15:45:52;25.00;65.90
27741;DHT22;15134;48.768;9.184;2023-06-14T15:48:18;25.00;65.90
27741;DHT22;15134;48.768;9.184;2023-06-14T15:50:44;24.80;66.30